Estación Meteorológica Peña el Pijo (Robertgarden) [ 03/06/21 14:23:28 CET ]

Fecha Hora Presion(HPa) Temp (°C) Humedad % Rocio (°C) Viento ( m/s) Direccion Lluvia 1Hora(mm) Lluvia 24H(mm) LLuvia Total(mm)
2021-Feb-23 01:09:38 1014.000 5.1 75 1.0 - N     89.61
2021-Feb-23 02:09:31 1014.100 5.2 76 1.3 - N     89.61
2021-Feb-23 03:10:23 1014.600 5.1 77 1.4 - N     89.61
2021-Feb-23 04:09:53 1014.900 5.2 76 1.3 - N     89.61
2021-Feb-23 05:13:16 1015.300 5.1 75 1.0 - N     89.61
2021-Feb-23 06:10:12 1016.000 4.9 77 1.2 - N     89.61
2021-Feb-23 07:09:36 1016.200 4.5 80 1.4 - N     89.61
2021-Feb-23 08:09:38 1017.100 4.4 81 1.4 - N     89.61
2021-Feb-23 09:09:39 1018.000 6.9 73 2.4 - N     89.61
2021-Feb-23 10:09:24 1018.900 6.9 73 2.4 - N     89.61
2021-Feb-23 11:09:37 1019.600 9.3 67 3.5 - N     89.61
2021-Feb-23 12:09:18 1019.700 9.3 64 2.8 - N     89.61
2021-Feb-23 13:08:57 1019.300 11.2 54 2.2 - N     89.61
2021-Feb-23 14:09:39 1019.300 12.7 46 1.3 - N     89.61
2021-Feb-23 15:09:42 1019.300 11.4 52 1.9 - N     89.61
2021-Feb-23 16:09:40 1019.300 13.1 45 2.2 - N     89.61
2021-Feb-23 17:09:22 1019.100 10.9 52 1.4 - N     89.61
2021-Feb-23 18:09:40 1019.200 10.4 54 1.5 - N     89.61
2021-Feb-23 19:09:21 1019.700 9.1 59 1.5 - N     89.61
2021-Feb-23 20:09:17 1020.100 7.9 65 1.7 - N     89.61
2021-Feb-23 21:09:25 1020.800 7.3 70 2.2 - N     89.61
2021-Feb-23 22:10:03 1021.300 6.1 74 1.8 - N     89.61
2021-Feb-23 23:10:01 1021.700 5.9 78 2.3 - N     89.61

Temperatura Máxima:13°    Temperatura Mínima:
Presión Máxima:1021.700 Hpa    Presión Mínima:1014.000 Hpa


Volver